Time;durP1;ratioP1;P1;durP2;ratioP2;P2;SDS_P1;SDS_P2;PMS_P1;PMS_P2;Temp;Humidity;BMP_temperature;BMP_pressure;BME280_temperature;BME280_humidity;BME280_pressure;Samples;Min_cycle;Max_cycle;Signal;HPM_P1;HPM_P2
2022/04/21 00:02:14;;;;;;;66.23;37.17;;;;;;;;;;6147438;29;20498;-81
2022/04/21 00:05:15;;;;;;;67.88;36.47;;;;;;;;;;6130249;29;20255;-81
2022/04/21 00:08:17;;;;;;;76.32;39.00;;;;;;;;;;6129363;28;20027;-81
2022/04/21 00:11:17;;;;;;;76.40;38.85;;;;;;;;;;6129877;29;20031;-81
2022/04/21 00:14:17;;;;;;;60.55;36.90;;;;;;;;;;6145903;29;20042;-81
2022/04/21 00:17:17;;;;;;;76.37;37.93;;;;;;;;;;6147210;29;20083;-81
2022/04/21 00:20:18;;;;;;;69.97;37.85;;;;;;;;;;6146958;29;20322;-81
2022/04/21 00:23:27;;;;;;;73.22;37.97;;;;;;;;;;6130001;29;20022;-81
2022/04/21 00:26:27;;;;;;;68.00;38.88;;;;;;;;;;6146887;28;20039;-81
2022/04/21 00:29:27;;;;;;;69.23;35.77;;;;;;;;;;6147165;29;20027;-81
2022/04/21 00:32:27;;;;;;;77.53;38.90;;;;;;;;;;6129756;29;20259;-82
2022/04/21 00:35:28;;;;;;;72.57;38.67;;;;;;;;;;6146914;29;20262;-81
2022/04/21 00:38:28;;;;;;;74.60;36.35;;;;;;;;;;6146992;29;20031;-81
2022/04/21 00:41:28;;;;;;;75.00;37.60;;;;;;;;;;6129429;29;20011;-81
2022/04/21 00:44:29;;;;;;;74.70;40.73;;;;;;;;;;6147071;29;20015;-81
2022/04/21 00:47:30;;;;;;;77.75;39.65;;;;;;;;;;6146758;29;20294;-81
2022/04/21 00:50:33;;;;;;;86.82;43.80;;;;;;;;;;6146672;29;20537;-81
2022/04/21 00:53:33;;;;;;;82.07;42.25;;;;;;;;;;6147244;29;20447;-81
2022/04/21 00:56:34;;;;;;;86.40;42.10;;;;;;;;;;6129935;29;20150;-81
2022/04/21 00:59:34;;;;;;;97.33;47.87;;;;;;;;;;6145209;29;20030;-81
2022/04/21 01:02:47;;;;;;;92.68;44.63;;;;;;;;;;6145332;28;20773;-81
2022/04/21 01:05:47;;;;;;;89.10;44.78;;;;;;;;;;6145477;28;20023;-81
2022/04/21 01:08:48;;;;;;;92.78;42.25;;;;;;;;;;6129064;29;20391;-81
2022/04/21 01:11:49;;;;;;;76.10;38.97;;;;;;;;;;6146442;29;20111;-81
2022/04/21 01:14:49;;;;;;;78.13;38.22;;;;;;;;;;6129335;29;20026;-81
2022/04/21 01:17:51;;;;;;;70.78;36.15;;;;;;;;;;6129231;29;20106;-80
2022/04/21 01:20:52;;;;;;;63.35;36.53;;;;;;;;;;6148887;28;20155;-80
2022/04/21 01:23:52;;;;;;;69.13;38.03;;;;;;;;;;6151231;29;20023;-80
2022/04/21 01:26:55;;;;;;;66.63;35.37;;;;;;;;;;6134180;29;20330;-81
2022/04/21 01:29:56;;;;;;;69.63;35.40;;;;;;;;;;6133546;29;20629;-81
2022/04/21 01:32:56;;;;;;;64.55;33.15;;;;;;;;;;6149680;29;20015;-81
2022/04/21 01:35:56;;;;;;;64.75;35.70;;;;;;;;;;6133543;29;20369;-80
2022/04/21 01:42:16;;;;;;;61.25;33.30;;;;;;;;;;6150481;29;20027;-80
2022/04/21 01:45:16;;;;;;;62.60;34.53;;;;;;;;;;6150764;29;20098;-81
2022/04/21 01:48:17;;;;;;;66.65;36.65;;;;;;;;;;6150353;29;20117;-81
2022/04/21 01:51:17;;;;;;;71.05;37.60;;;;;;;;;;6150450;29;20020;-81
2022/04/21 01:54:17;;;;;;;61.77;34.50;;;;;;;;;;6150309;28;20023;-81
2022/04/21 01:57:19;;;;;;;64.35;33.55;;;;;;;;;;6143823;28;20634;-81
2022/04/21 02:00:20;;;;;;;63.20;35.25;;;;;;;;;;6147015;28;20110;-81
2022/04/21 02:03:20;;;;;;;67.35;35.58;;;;;;;;;;6141308;28;20092;-81
2022/04/21 02:06:20;;;;;;;65.22;35.33;;;;;;;;;;6147830;29;20040;-81
2022/04/21 02:09:21;;;;;;;56.22;32.92;;;;;;;;;;6145623;29;20026;-81
2022/04/21 02:12:24;;;;;;;58.00;30.35;;;;;;;;;;6128945;29;20023;-81
2022/04/21 02:15:24;;;;;;;63.13;32.40;;;;;;;;;;6149080;29;20031;-81
2022/04/21 02:18:25;;;;;;;65.57;31.27;;;;;;;;;;6132079;29;20030;-81
2022/04/21 02:21:25;;;;;;;61.60;36.40;;;;;;;;;;6150179;29;20027;-81
2022/04/21 02:24:25;;;;;;;60.20;36.13;;;;;;;;;;6131469;28;20267;-81
2022/04/21 02:27:25;;;;;;;74.07;37.20;;;;;;;;;;6132406;29;20275;-81
2022/04/21 02:30:26;;;;;;;62.50;34.60;;;;;;;;;;6149814;29;20034;-81
2022/04/21 02:33:26;;;;;;;62.22;32.40;;;;;;;;;;6148906;28;20031;-81
2022/04/21 02:36:26;;;;;;;58.08;33.22;;;;;;;;;;6132323;29;20042;-81
2022/04/21 02:39:26;;;;;;;61.00;31.97;;;;;;;;;;6131989;29;20031;-81
2022/04/21 02:42:27;;;;;;;57.40;31.10;;;;;;;;;;6149772;29;20274;-82
2022/04/21 02:45:27;;;;;;;58.65;31.23;;;;;;;;;;6147658;29;20022;-81
2022/04/21 02:48:28;;;;;;;59.90;31.77;;;;;;;;;;6147320;29;20506;-81
2022/04/21 02:51:30;;;;;;;58.13;32.53;;;;;;;;;;6144635;28;20027;-81
2022/04/21 02:57:49;;;;;;;54.10;31.17;;;;;;;;;;6145479;29;20031;-81
2022/04/21 03:00:50;;;;;;;52.65;28.92;;;;;;;;;;6146534;29;20051;-81
2022/04/21 03:03:50;;;;;;;47.70;28.80;;;;;;;;;;6142898;29;20015;-81
2022/04/21 03:06:50;;;;;;;48.97;28.37;;;;;;;;;;6147387;29;20104;-81
2022/04/21 03:09:53;;;;;;;53.55;29.88;;;;;;;;;;6148660;29;20259;-81
2022/04/21 03:12:53;;;;;;;54.55;31.52;;;;;;;;;;6148662;29;20023;-81
2022/04/21 03:15:53;;;;;;;52.67;29.23;;;;;;;;;;6131759;29;20054;-81
2022/04/21 03:18:53;;;;;;;66.65;31.20;;;;;;;;;;6130996;29;20378;-81
2022/04/21 03:25:13;;;;;;;61.72;32.67;;;;;;;;;;6159034;28;20026;-81
2022/04/21 03:28:13;;;;;;;61.70;32.95;;;;;;;;;;6153002;28;20053;-81
2022/04/21 03:31:13;;;;;;;58.67;33.42;;;;;;;;;;6148045;29;20379;-81
2022/04/21 03:34:15;;;;;;;58.13;32.60;;;;;;;;;;6148581;29;20039;-81
2022/04/21 03:37:15;;;;;;;59.80;33.42;;;;;;;;;;6148664;29;20078;-81
2022/04/21 03:40:15;;;;;;;63.17;32.60;;;;;;;;;;6130536;29;20028;-81
2022/04/21 03:43:16;;;;;;;59.67;32.50;;;;;;;;;;6147601;28;20442;-81
2022/04/21 03:46:16;;;;;;;58.72;33.30;;;;;;;;;;6148219;29;20022;-81
2022/04/21 03:49:16;;;;;;;53.92;32.63;;;;;;;;;;6147263;28;20233;-81
2022/04/21 03:52:19;;;;;;;75.28;37.47;;;;;;;;;;6114018;29;20056;-82
2022/04/21 03:55:20;;;;;;;57.30;33.00;;;;;;;;;;6147971;28;20026;-81
2022/04/21 03:58:20;;;;;;;55.35;30.02;;;;;;;;;;6147750;29;20019;-81
2022/04/21 04:01:20;;;;;;;58.72;30.15;;;;;;;;;;6129990;29;20026;-81
2022/04/21 04:04:21;;;;;;;55.92;30.20;;;;;;;;;;6147903;29;20027;-81
2022/04/21 04:10:55;;;;;;;54.72;29.42;;;;;;;;;;6147488;29;20035;-81
2022/04/21 04:13:55;;;;;;;57.30;32.45;;;;;;;;;;6147947;29;20020;-81
2022/04/21 04:16:56;;;;;;;58.13;32.88;;;;;;;;;;6130021;29;20027;-81
2022/04/21 04:19:56;;;;;;;65.32;32.92;;;;;;;;;;6147154;29;20400;-81
2022/04/21 04:22:56;;;;;;;59.33;34.07;;;;;;;;;;6147321;29;20023;-81
2022/04/21 04:25:56;;;;;;;58.30;31.77;;;;;;;;;;6147431;28;20255;-81
2022/04/21 04:28:57;;;;;;;53.90;31.23;;;;;;;;;;6146365;29;20294;-81
2022/04/21 04:31:57;;;;;;;50.78;30.30;;;;;;;;;;6129903;29;20093;-81
2022/04/21 04:34:57;;;;;;;55.83;29.90;;;;;;;;;;6129515;29;20031;-81
2022/04/21 04:37:58;;;;;;;52.47;31.88;;;;;;;;;;6129942;29;20039;-81
2022/04/21 04:42:16;;;;;;;58.38;32.53;;;;;;;;;;6128667;29;20031;-81
2022/04/21 04:44:18;;;;;;;62.58;36.13;;;;;;;;;;6146562;29;20067;-81
2022/04/21 04:47:19;;;;;;;63.72;36.40;;;;;;;;;;6120674;29;20020;-81
2022/04/21 04:50:19;;;;;;;68.57;36.33;;;;;;;;;;6122774;29;20059;-81
2022/04/21 04:53:19;;;;;;;59.28;32.53;;;;;;;;;;6145665;29;20277;-81
2022/04/21 04:56:22;;;;;;;60.22;33.55;;;;;;;;;;6137908;28;20023;-81
2022/04/21 04:59:23;;;;;;;63.47;33.20;;;;;;;;;;6134536;28;20019;-81
2022/04/21 05:02:23;;;;;;;57.13;32.33;;;;;;;;;;6142422;28;20023;-81
2022/04/21 05:05:23;;;;;;;64.80;35.80;;;;;;;;;;6139114;28;20174;-81
2022/04/21 05:08:23;;;;;;;56.85;34.15;;;;;;;;;;6153983;28;20474;-81
2022/04/21 05:11:25;;;;;;;64.53;36.17;;;;;;;;;;6153580;28;20019;-81
2022/04/21 05:14:26;;;;;;;74.82;40.78;;;;;;;;;;6154471;28;20259;-81
2022/04/21 05:17:26;;;;;;;64.13;37.55;;;;;;;;;;6134741;28;20195;-81
2022/04/21 05:20:27;;;;;;;66.10;39.03;;;;;;;;;;6137918;28;20038;-81
2022/04/21 05:23:32;;;;;;;72.30;38.67;;;;;;;;;;6137179;29;20024;-81
2022/04/21 05:26:33;;;;;;;96.18;50.92;;;;;;;;;;6153115;28;20032;-81
2022/04/21 05:32:54;;;;;;;73.70;40.60;;;;;;;;;;6154439;28;20039;-81
2022/04/21 05:35:56;;;;;;;64.78;40.17;;;;;;;;;;6154093;28;20027;-81
2022/04/21 05:38:56;;;;;;;88.75;45.55;;;;;;;;;;6152804;28;20037;-82
2022/04/21 05:41:57;;;;;;;73.38;40.95;;;;;;;;;;6151286;28;20089;-81
2022/04/21 05:44:58;;;;;;;76.85;42.67;;;;;;;;;;6143665;28;20030;-81
2022/04/21 05:47:58;;;;;;;93.07;50.05;;;;;;;;;;6152347;28;20027;-81
2022/04/21 05:50:58;;;;;;;73.53;44.38;;;;;;;;;;6129877;28;20031;-81
2022/04/21 05:53:59;;;;;;;72.60;39.90;;;;;;;;;;6114398;28;20067;-81
2022/04/21 05:56:59;;;;;;;62.80;38.50;;;;;;;;;;6151767;28;20019;-81
2022/04/21 05:59:59;;;;;;;56.28;34.92;;;;;;;;;;6151632;29;20023;-81
2022/04/21 06:03:00;;;;;;;56.00;34.17;;;;;;;;;;6140801;28;20074;-81
2022/04/21 06:06:00;;;;;;;57.90;32.22;;;;;;;;;;6140840;28;20051;-81
2022/04/21 06:09:00;;;;;;;51.40;30.93;;;;;;;;;;6148728;29;20430;-80
2022/04/21 06:12:02;;;;;;;53.60;32.55;;;;;;;;;;6148410;29;20698;-81
2022/04/21 06:15:02;;;;;;;60.58;34.78;;;;;;;;;;6134191;28;20533;-80
2022/04/21 06:18:03;;;;;;;50.50;30.27;;;;;;;;;;6146462;29;20067;-80
2022/04/21 06:21:03;;;;;;;43.20;29.43;;;;;;;;;;6146826;29;20027;-80
2022/04/21 06:24:04;;;;;;;49.37;29.40;;;;;;;;;;6132169;28;20087;-80
2022/04/21 06:27:04;;;;;;;47.87;27.77;;;;;;;;;;6136216;28;20444;-80
2022/04/21 06:30:04;;;;;;;45.90;30.27;;;;;;;;;;6132728;29;20439;-80
2022/04/21 06:33:05;;;;;;;43.30;29.73;;;;;;;;;;6139871;28;20030;-80
2022/04/21 06:36:07;;;;;;;35.00;22.67;;;;;;;;;;6148339;29;20423;-80
2022/04/21 06:39:07;;;;;;;29.25;17.92;;;;;;;;;;6136100;29;20027;-80
2022/04/21 06:42:08;;;;;;;27.73;18.53;;;;;;;;;;6148059;29;20444;-80
2022/04/21 06:48:27;;;;;;;29.02;18.13;;;;;;;;;;6139879;29;20118;-80
2022/04/21 06:51:27;;;;;;;23.50;17.30;;;;;;;;;;6146877;29;20029;-80
2022/04/21 06:54:28;;;;;;;28.93;19.53;;;;;;;;;;6149898;28;20027;-80
2022/04/21 06:57:28;;;;;;;25.77;18.60;;;;;;;;;;6131348;29;20518;-80
2022/04/21 07:00:29;;;;;;;23.10;15.53;;;;;;;;;;6131242;29;20069;-80
2022/04/21 07:03:29;;;;;;;23.13;15.83;;;;;;;;;;6132644;28;20035;-80
2022/04/21 07:06:29;;;;;;;20.33;15.03;;;;;;;;;;6142533;28;20035;-80
2022/04/21 07:09:29;;;;;;;25.27;15.57;;;;;;;;;;6148008;29;20114;-80
2022/04/21 07:12:30;;;;;;;19.17;13.73;;;;;;;;;;6147546;29;20035;-79
2022/04/21 07:15:31;;;;;;;23.58;15.93;;;;;;;;;;6148285;29;20029;-79
2022/04/21 07:18:31;;;;;;;20.30;15.30;;;;;;;;;;6129301;29;20035;-79
2022/04/21 07:21:31;;;;;;;19.30;13.93;;;;;;;;;;6148327;29;20030;-79
2022/04/21 07:24:31;;;;;;;20.33;13.47;;;;;;;;;;6153783;28;20505;-79
2022/04/21 07:27:32;;;;;;;18.93;12.90;;;;;;;;;;6158173;28;20126;-79
2022/04/21 07:30:32;;;;;;;26.67;17.33;;;;;;;;;;6146018;29;20027;-79
2022/04/21 07:33:33;;;;;;;22.53;16.20;;;;;;;;;;6129006;29;20031;-79
2022/04/21 07:36:33;;;;;;;19.33;12.83;;;;;;;;;;6145393;29;20031;-79
2022/04/21 07:39:33;;;;;;;24.33;13.83;;;;;;;;;;6128439;29;20435;-79
2022/04/21 07:42:35;;;;;;;44.87;27.43;;;;;;;;;;6148059;29;20015;-79
2022/04/21 07:45:40;;;;;;;16.92;12.43;;;;;;;;;;6129584;29;20031;-79
2022/04/21 07:55:25;;;;;;;47.53;34.72;;;;;;;;;;6148080;28;20027;-79
2022/04/21 07:58:27;;;;;;;22.23;14.30;;;;;;;;;;6130681;29;20387;-79
2022/04/21 08:01:27;;;;;;;25.42;15.50;;;;;;;;;;6147747;29;20074;-79
2022/04/21 08:04:27;;;;;;;25.27;14.70;;;;;;;;;;6148245;29;20223;-79
2022/04/21 08:07:27;;;;;;;23.53;15.37;;;;;;;;;;6130267;29;20416;-79
2022/04/21 08:10:28;;;;;;;28.93;18.70;;;;;;;;;;6121219;29;20479;-79
2022/04/21 08:13:29;;;;;;;24.90;17.10;;;;;;;;;;6143157;29;20067;-79
2022/04/21 08:16:29;;;;;;;25.70;17.13;;;;;;;;;;6125554;29;20054;-79
2022/04/21 08:19:29;;;;;;;27.53;18.23;;;;;;;;;;6145137;29;20023;-79
2022/04/21 08:22:29;;;;;;;28.38;19.10;;;;;;;;;;6129544;29;20024;-79
2022/04/21 08:35:27;;;;;;;34.47;19.60;;;;;;;;;;6146427;29;20027;-80
2022/04/21 08:38:28;;;;;;;43.17;30.27;;;;;;;;;;6147488;29;20063;-80
2022/04/21 08:41:30;;;;;;;43.27;27.00;;;;;;;;;;6146259;29;20019;-80
2022/04/21 08:44:32;;;;;;;29.17;20.58;;;;;;;;;;6147065;29;20263;-79
2022/04/21 08:47:32;;;;;;;40.60;26.50;;;;;;;;;;6129192;29;20481;-79
2022/04/21 08:50:33;;;;;;;33.28;21.83;;;;;;;;;;6127674;29;20032;-80
2022/04/21 08:53:33;;;;;;;37.22;23.00;;;;;;;;;;6125560;29;20442;-80
2022/04/21 08:56:33;;;;;;;24.52;16.80;;;;;;;;;;6144837;28;20034;-80
2022/04/21 08:59:33;;;;;;;32.50;21.40;;;;;;;;;;6145943;29;20054;-80
2022/04/21 09:02:34;;;;;;;33.92;20.58;;;;;;;;;;6144916;29;20023;-80
2022/04/21 09:05:34;;;;;;;31.95;19.90;;;;;;;;;;6144852;28;20022;-80
2022/04/21 09:08:34;;;;;;;28.67;17.55;;;;;;;;;;6128681;28;20130;-80
2022/04/21 09:11:35;;;;;;;30.58;18.80;;;;;;;;;;6146069;29;20070;-80
2022/04/21 09:14:35;;;;;;;33.22;19.63;;;;;;;;;;6146465;29;20031;-80
2022/04/21 09:17:40;;;;;;;27.10;14.00;;;;;;;;;;6146675;29;20509;-80
2022/04/21 09:20:41;;;;;;;28.02;15.88;;;;;;;;;;6144829;29;20062;-80
2022/04/21 09:23:44;;;;;;;24.65;16.67;;;;;;;;;;6144852;29;20027;-80
2022/04/21 09:26:45;;;;;;;22.73;16.02;;;;;;;;;;6128417;28;20114;-80
2022/04/21 09:29:45;;;;;;;25.13;15.98;;;;;;;;;;6128050;28;20491;-80
2022/04/21 09:32:53;;;;;;;26.30;16.10;;;;;;;;;;6128547;29;20130;-80
2022/04/21 09:35:55;;;;;;;21.63;13.57;;;;;;;;;;6145000;28;20071;-80
2022/04/21 09:38:59;;;;;;;24.73;15.15;;;;;;;;;;6146287;29;20027;-80
2022/04/21 09:41:59;;;;;;;24.80;14.90;;;;;;;;;;6147256;28;20015;-80
2022/04/21 09:48:28;;;;;;;23.35;14.13;;;;;;;;;;6150379;29;20031;-80
2022/04/21 09:51:29;;;;;;;19.33;12.32;;;;;;;;;;6132926;29;20023;-80
2022/04/21 09:54:29;;;;;;;16.73;11.67;;;;;;;;;;6149450;28;20697;-80
2022/04/21 09:57:30;;;;;;;21.57;14.03;;;;;;;;;;6132745;29;20050;-80
2022/04/21 10:00:31;;;;;;;20.13;13.52;;;;;;;;;;6143227;28;20417;-80
2022/04/21 10:03:35;;;;;;;13.07;8.30;;;;;;;;;;6148535;29;20011;-80
2022/04/21 10:06:36;;;;;;;16.85;9.95;;;;;;;;;;6130514;29;20082;-80
2022/04/21 10:09:36;;;;;;;15.95;10.30;;;;;;;;;;6147486;29;20110;-80
2022/04/21 10:12:36;;;;;;;16.20;11.67;;;;;;;;;;6148398;29;20510;-80
2022/04/21 10:15:38;;;;;;;16.20;10.43;;;;;;;;;;6141764;29;20038;-80
2022/04/21 10:18:38;;;;;;;16.77;10.93;;;;;;;;;;6148885;29;20038;-80
2022/04/21 10:21:52;;;;;;;15.43;11.57;;;;;;;;;;6146310;29;20670;-80
2022/04/21 10:24:56;;;;;;;28.38;17.92;;;;;;;;;;6146760;28;20070;-80
2022/04/21 10:27:57;;;;;;;30.83;20.67;;;;;;;;;;6146819;28;20039;-80
2022/04/21 10:30:57;;;;;;;21.27;12.77;;;;;;;;;;6149172;29;20078;-80
2022/04/21 10:33:58;;;;;;;18.70;11.80;;;;;;;;;;6148687;29;20023;-80
2022/04/21 10:37:06;;;;;;;18.65;12.55;;;;;;;;;;6149788;29;20477;-80
2022/04/21 10:40:10;;;;;;;19.25;12.68;;;;;;;;;;6147037;29;20098;-80
2022/04/21 10:43:13;;;;;;;17.83;12.98;;;;;;;;;;6136391;29;20098;-80
2022/04/21 10:46:21;;;;;;;23.83;14.30;;;;;;;;;;6145386;28;20472;-80
2022/04/21 10:49:51;;;;;;;20.45;14.48;;;;;;;;;;6130163;29;20568;-80
2022/04/21 10:59:50;;;;;;;22.95;14.00;;;;;;;;;;6147980;28;20495;-81
2022/04/21 11:03:00;;;;;;;18.33;13.23;;;;;;;;;;6148228;28;20074;-81
2022/04/21 11:06:04;;;;;;;19.15;13.93;;;;;;;;;;6149415;29;20102;-81
2022/04/21 11:09:05;;;;;;;22.88;13.65;;;;;;;;;;6149255;29;20078;-80
2022/04/21 11:12:06;;;;;;;18.03;12.73;;;;;;;;;;6149112;29;20488;-80
2022/04/21 11:15:25;;;;;;;16.35;11.32;;;;;;;;;;6145649;29;20031;-80
2022/04/21 11:18:31;;;;;;;17.75;11.50;;;;;;;;;;6122207;29;20031;-80
2022/04/21 11:21:31;;;;;;;17.92;11.85;;;;;;;;;;6136239;28;20121;-81
2022/04/21 11:24:50;;;;;;;18.87;12.47;;;;;;;;;;6147561;29;20570;-81
2022/04/21 11:27:51;;;;;;;16.65;11.45;;;;;;;;;;6142249;28;20047;-80
2022/04/21 11:30:58;;;;;;;17.13;10.47;;;;;;;;;;6147147;29;20038;-80
2022/04/21 11:34:02;;;;;;;15.82;9.90;;;;;;;;;;6148264;29;20030;-80
2022/04/21 11:37:05;;;;;;;13.90;9.75;;;;;;;;;;6148799;29;20582;-80
2022/04/21 11:40:16;;;;;;;15.52;10.13;;;;;;;;;;6142996;29;20360;-80
2022/04/21 11:43:17;;;;;;;17.30;9.48;;;;;;;;;;6147924;29;20307;-80
2022/04/21 11:46:21;;;;;;;13.53;9.00;;;;;;;;;;6131113;29;20022;-80
2022/04/21 11:49:21;;;;;;;16.88;9.80;;;;;;;;;;6122913;29;20479;-80
2022/04/21 11:52:27;;;;;;;15.27;8.03;;;;;;;;;;6141612;29;20026;-80
2022/04/21 11:55:28;;;;;;;13.95;8.85;;;;;;;;;;6130626;29;20027;-80
2022/04/21 11:58:30;;;;;;;12.48;8.65;;;;;;;;;;6130299;29;20031;-80
2022/04/21 12:08:10;;;;;;;15.32;7.53;;;;;;;;;;6140799;29;20039;-81
2022/04/21 12:11:12;;;;;;;13.20;6.90;;;;;;;;;;6147085;29;20241;-80
2022/04/21 12:14:13;;;;;;;15.27;9.45;;;;;;;;;;6129184;29;20423;-80
2022/04/21 12:17:13;;;;;;;15.43;8.67;;;;;;;;;;6128325;29;20031;-80
2022/04/21 12:20:13;;;;;;;11.27;8.27;;;;;;;;;;6144771;29;20467;-80
2022/04/21 12:23:21;;;;;;;12.00;7.10;;;;;;;;;;6147001;29;20086;-80
2022/04/21 12:26:21;;;;;;;12.05;6.50;;;;;;;;;;6147693;28;20074;-80
2022/04/21 12:29:23;;;;;;;10.93;6.97;;;;;;;;;;6147175;29;20456;-80
2022/04/21 12:32:25;;;;;;;13.63;7.55;;;;;;;;;;6129329;29;20027;-80
2022/04/21 12:36:00;;;;;;;14.93;9.23;;;;;;;;;;6122214;28;20027;-80
2022/04/21 12:39:01;;;;;;;11.93;6.85;;;;;;;;;;6056567;29;20036;-80
2022/04/21 12:42:03;;;;;;;12.37;7.70;;;;;;;;;;6126442;29;20031;-81
2022/04/21 12:45:03;;;;;;;10.88;6.38;;;;;;;;;;6109556;28;20023;-81
2022/04/21 12:48:19;;;;;;;11.57;6.90;;;;;;;;;;6147055;29;20059;-81
2022/04/21 12:51:20;;;;;;;11.40;8.43;;;;;;;;;;6129301;29;20042;-81
2022/04/21 12:54:23;;;;;;;12.03;7.60;;;;;;;;;;6147490;28;20066;-80
2022/04/21 12:57:24;;;;;;;10.98;6.97;;;;;;;;;;6147095;29;20031;-81
2022/04/21 13:00:24;;;;;;;14.27;7.53;;;;;;;;;;6142862;28;20019;-80
2022/04/21 13:03:24;;;;;;;12.43;7.63;;;;;;;;;;6146908;29;20027;-81
2022/04/21 13:06:26;;;;;;;14.20;8.10;;;;;;;;;;6144996;29;20019;-81
2022/04/21 13:09:26;;;;;;;12.48;6.63;;;;;;;;;;6129106;29;20479;-81
2022/04/21 13:12:28;;;;;;;11.83;7.73;;;;;;;;;;6145067;29;20030;-81
2022/04/21 13:15:28;;;;;;;12.48;7.80;;;;;;;;;;6133394;28;20031;-80
2022/04/21 13:18:30;;;;;;;12.93;7.07;;;;;;;;;;6148567;29;20083;-80
2022/04/21 13:24:49;;;;;;;13.13;7.80;;;;;;;;;;6148369;28;20115;-81
2022/04/21 13:27:49;;;;;;;14.17;8.53;;;;;;;;;;6144266;28;20502;-80
2022/04/21 13:33:21;;;;;;;11.97;7.03;;;;;;;;;;6143468;29;20467;-81
2022/04/21 13:34:12;;;;;;;11.70;7.70;;;;;;;;;;6144848;29;20403;-80
2022/04/21 13:37:12;;;;;;;10.33;6.60;;;;;;;;;;6145170;29;20031;-80
2022/04/21 13:40:13;;;;;;;13.57;7.60;;;;;;;;;;6144635;29;20134;-80
2022/04/21 13:43:13;;;;;;;11.17;7.93;;;;;;;;;;6131391;29;20038;-80
2022/04/21 13:46:15;;;;;;;11.33;6.80;;;;;;;;;;6148811;29;20419;-80
2022/04/21 13:49:16;;;;;;;12.65;8.10;;;;;;;;;;6129111;29;20024;-80
2022/04/21 13:52:16;;;;;;;14.23;8.50;;;;;;;;;;6148933;29;20039;-80
2022/04/21 13:55:16;;;;;;;13.02;8.15;;;;;;;;;;6137653;29;20495;-80
2022/04/21 13:58:16;;;;;;;17.17;8.75;;;;;;;;;;6150277;29;20462;-80
2022/04/21 14:01:17;;;;;;;16.33;9.47;;;;;;;;;;6132327;29;20039;-80
2022/04/21 14:04:17;;;;;;;16.23;7.80;;;;;;;;;;6130918;29;20383;-80
2022/04/21 14:07:17;;;;;;;17.17;10.53;;;;;;;;;;6145912;29;20023;-80
2022/04/21 14:10:18;;;;;;;15.17;8.37;;;;;;;;;;6149232;29;20038;-80
2022/04/21 14:13:18;;;;;;;15.93;7.80;;;;;;;;;;6148570;29;20067;-80
2022/04/21 14:16:18;;;;;;;15.32;8.02;;;;;;;;;;6148754;29;20110;-80
2022/04/21 14:19:18;;;;;;;23.08;10.40;;;;;;;;;;6146740;29;20047;-80
2022/04/21 14:22:19;;;;;;;18.50;8.97;;;;;;;;;;6127399;29;20035;-81
2022/04/21 14:25:20;;;;;;;15.57;7.83;;;;;;;;;;6146867;28;20082;-80
2022/04/21 14:28:20;;;;;;;17.37;9.27;;;;;;;;;;6142927;29;20051;-80
2022/04/21 14:31:21;;;;;;;13.23;8.07;;;;;;;;;;6142663;28;20114;-80
2022/04/21 14:34:21;;;;;;;17.90;8.40;;;;;;;;;;6146092;29;20023;-80
2022/04/21 14:44:06;;;;;;;16.15;7.88;;;;;;;;;;6142013;29;20125;-80
2022/04/21 14:47:07;;;;;;;15.63;8.65;;;;;;;;;;6145274;29;20102;-80
2022/04/21 14:50:08;;;;;;;19.67;9.65;;;;;;;;;;6145737;29;20031;-80
2022/04/21 14:53:09;;;;;;;13.90;9.38;;;;;;;;;;6147874;29;20280;-80
2022/04/21 14:56:09;;;;;;;16.40;9.68;;;;;;;;;;6145706;28;20194;-80
2022/04/21 14:59:10;;;;;;;14.15;8.13;;;;;;;;;;6145978;29;20069;-80
2022/04/21 15:02:10;;;;;;;19.87;10.30;;;;;;;;;;6129478;29;20027;-80
2022/04/21 15:05:10;;;;;;;16.20;8.05;;;;;;;;;;6127914;29;20015;-81
2022/04/21 15:08:11;;;;;;;14.40;8.52;;;;;;;;;;6132568;29;20085;-80
2022/04/21 15:11:11;;;;;;;13.02;8.65;;;;;;;;;;6146494;29;20031;-80
2022/04/21 15:14:12;;;;;;;15.43;8.40;;;;;;;;;;6127595;29;20059;-80
2022/04/21 15:17:12;;;;;;;17.58;9.38;;;;;;;;;;6127929;29;20028;-80
2022/04/21 15:20:12;;;;;;;21.98;11.23;;;;;;;;;;6145599;29;20035;-80
2022/04/21 15:23:12;;;;;;;16.65;8.63;;;;;;;;;;6128583;29;20034;-80
2022/04/21 15:26:14;;;;;;;19.02;10.88;;;;;;;;;;6136740;28;20026;-80
2022/04/21 15:29:15;;;;;;;26.60;12.45;;;;;;;;;;6129415;29;20039;-80
2022/04/21 15:32:15;;;;;;;19.80;11.02;;;;;;;;;;6128494;29;20027;-80
2022/04/21 15:35:16;;;;;;;16.57;10.37;;;;;;;;;;6129677;29;20470;-80
2022/04/21 15:38:17;;;;;;;17.27;10.82;;;;;;;;;;6146796;28;20679;-81
2022/04/21 15:41:17;;;;;;;22.73;13.90;;;;;;;;;;6146735;28;20062;-81
2022/04/21 15:44:18;;;;;;;21.75;12.57;;;;;;;;;;6146721;29;20407;-82
2022/04/21 15:47:18;;;;;;;23.85;13.50;;;;;;;;;;6129465;29;20023;-81
2022/04/21 15:50:19;;;;;;;27.40;14.68;;;;;;;;;;6147210;29;20047;-82
2022/04/21 15:59:57;;;;;;;20.45;13.05;;;;;;;;;;6146590;29;20790;-81
2022/04/21 16:02:57;;;;;;;27.02;14.48;;;;;;;;;;6144994;29;20019;-81
2022/04/21 16:05:58;;;;;;;22.93;14.27;;;;;;;;;;6145096;28;20019;-81
2022/04/21 16:08:58;;;;;;;30.43;17.90;;;;;;;;;;6145508;29;20263;-81
2022/04/21 16:11:58;;;;;;;43.65;25.65;;;;;;;;;;6144709;28;20357;-81
2022/04/21 16:14:59;;;;;;;33.70;21.52;;;;;;;;;;6159392;28;20038;-82
2022/04/21 16:17:59;;;;;;;32.83;19.27;;;;;;;;;;6121185;29;20464;-82
2022/04/21 16:20:59;;;;;;;31.17;20.77;;;;;;;;;;6121141;29;20118;-81
2022/04/21 16:24:00;;;;;;;32.28;19.80;;;;;;;;;;6105519;28;20271;-81
2022/04/21 16:27:00;;;;;;;41.60;23.90;;;;;;;;;;6145547;29;20335;-81
2022/04/21 16:30:00;;;;;;;39.80;23.13;;;;;;;;;;6145815;29;20136;-81
2022/04/21 16:33:01;;;;;;;38.33;21.17;;;;;;;;;;6145924;29;20746;-81
2022/04/21 16:36:01;;;;;;;30.13;18.35;;;;;;;;;;6128256;29;20269;-81
2022/04/21 16:39:01;;;;;;;29.58;16.73;;;;;;;;;;6135565;28;20073;-81
2022/04/21 16:42:02;;;;;;;27.98;15.40;;;;;;;;;;6124446;28;20261;-80
2022/04/21 16:45:03;;;;;;;30.02;15.75;;;;;;;;;;6127461;28;20026;-80
2022/04/21 16:48:03;;;;;;;31.00;17.05;;;;;;;;;;6129101;29;20027;-80
2022/04/21 16:51:03;;;;;;;27.20;15.82;;;;;;;;;;6145811;28;20026;-80
2022/04/21 16:54:04;;;;;;;36.40;18.10;;;;;;;;;;6146324;28;20084;-80
2022/04/21 16:57:04;;;;;;;31.15;16.38;;;;;;;;;;6129323;29;20035;-80
2022/04/21 17:00:05;;;;;;;31.98;18.10;;;;;;;;;;6146206;28;20038;-80
2022/04/21 17:03:06;;;;;;;37.47;15.90;;;;;;;;;;6129000;29;20487;-80
2022/04/21 17:06:06;;;;;;;29.30;16.52;;;;;;;;;;6146619;29;20022;-80
2022/04/21 17:09:06;;;;;;;24.53;14.83;;;;;;;;;;6145824;29;20019;-80
2022/04/21 17:12:07;;;;;;;25.17;14.13;;;;;;;;;;6141200;29;20270;-80
2022/04/21 17:15:07;;;;;;;25.30;14.30;;;;;;;;;;6143289;29;20143;-80
2022/04/21 17:18:08;;;;;;;28.77;16.55;;;;;;;;;;6129186;29;20023;-80
2022/04/21 17:21:08;;;;;;;29.75;16.15;;;;;;;;;;6146257;29;20696;-80
2022/04/21 17:24:09;;;;;;;28.30;15.02;;;;;;;;;;6146361;28;20034;-80
2022/04/21 17:27:09;;;;;;;27.23;14.87;;;;;;;;;;6145638;29;20054;-80
2022/04/21 17:30:10;;;;;;;29.35;14.45;;;;;;;;;;6129237;28;20289;-80
2022/04/21 17:33:10;;;;;;;38.60;21.58;;;;;;;;;;6124660;29;20467;-80
2022/04/21 17:36:10;;;;;;;26.73;14.93;;;;;;;;;;6131392;29;20479;-80
2022/04/21 17:39:10;;;;;;;25.73;14.90;;;;;;;;;;6139296;29;20027;-80
2022/04/21 17:42:11;;;;;;;26.37;14.43;;;;;;;;;;6123916;29;20279;-80
2022/04/21 17:45:11;;;;;;;30.55;15.32;;;;;;;;;;6144473;29;20313;-79
2022/04/21 17:48:12;;;;;;;32.07;15.13;;;;;;;;;;6140968;29;20051;-80
2022/04/21 17:51:12;;;;;;;29.15;16.40;;;;;;;;;;6125088;28;20255;-80
2022/04/21 17:54:12;;;;;;;29.00;15.07;;;;;;;;;;6142065;29;20042;-79
2022/04/21 17:57:12;;;;;;;32.30;17.13;;;;;;;;;;6140977;29;20031;-79
2022/04/21 18:00:13;;;;;;;40.67;19.83;;;;;;;;;;6141968;29;20030;-79
2022/04/21 18:03:13;;;;;;;31.58;18.95;;;;;;;;;;6128429;29;20278;-79
2022/04/21 18:06:14;;;;;;;32.13;17.90;;;;;;;;;;6131348;29;20058;-79
2022/04/21 18:09:15;;;;;;;28.65;16.60;;;;;;;;;;6145603;29;20054;-79
2022/04/21 18:12:15;;;;;;;30.52;17.67;;;;;;;;;;6146048;29;20056;-80
2022/04/21 18:15:15;;;;;;;31.38;19.65;;;;;;;;;;6147517;29;20031;-80
2022/04/21 18:18:16;;;;;;;26.80;17.23;;;;;;;;;;6147614;29;20098;-80
2022/04/21 18:21:17;;;;;;;30.65;16.05;;;;;;;;;;6130784;29;20282;-79
2022/04/21 18:24:17;;;;;;;32.55;19.38;;;;;;;;;;6148704;28;20472;-78
2022/04/21 18:27:17;;;;;;;36.45;21.42;;;;;;;;;;6122430;29;20086;-78
2022/04/21 18:30:17;;;;;;;31.57;19.53;;;;;;;;;;6130928;28;20478;-78
2022/04/21 18:33:18;;;;;;;37.40;20.43;;;;;;;;;;6130561;28;20574;-78
2022/04/21 18:36:18;;;;;;;38.20;21.23;;;;;;;;;;6124083;29;20928;-78
2022/04/21 18:39:18;;;;;;;35.03;19.48;;;;;;;;;;6127676;28;20027;-78
2022/04/21 18:42:18;;;;;;;30.92;16.90;;;;;;;;;;6111254;29;20106;-78
2022/04/21 18:45:19;;;;;;;35.67;20.13;;;;;;;;;;6124121;29;20079;-78
2022/04/21 18:48:19;;;;;;;36.63;21.15;;;;;;;;;;6125214;29;20034;-78